createdAt,value
2019-03-03T00:00:00.053Z,100003.44
2019-03-03T00:04:05.410Z,100000.04
2019-03-03T00:08:10.240Z,100009.27
2019-03-03T00:12:14.461Z,99998.34
2019-03-03T00:16:19.874Z,100000.52
2019-03-03T00:20:24.396Z,99990.41
2019-03-03T00:24:28.818Z,99982.13
2019-03-03T00:28:33.008Z,99987.80
2019-03-03T00:32:37.247Z,99997.34
2019-03-03T00:36:59.314Z,99989.55
2019-03-03T00:41:21.416Z,100000.12
2019-03-03T00:45:38.784Z,99994.13
2019-03-03T00:49:59.800Z,99987.71
2019-03-03T00:54:35.147Z,99987.13
2019-03-03T00:58:59.460Z,99987.23
2019-03-03T01:03:09.546Z,99989.06
2019-03-03T01:07:32.702Z,99988.15
2019-03-03T01:12:04.855Z,99988.23
2019-03-03T01:16:18.410Z,99979.26
2019-03-03T01:20:28.208Z,99974.97
2019-03-03T01:24:57.638Z,99972.03
2019-03-03T01:29:01.880Z,99966.84
2019-03-03T01:33:06.096Z,99959.06
2019-03-03T01:37:10.314Z,99957.39
2019-03-03T01:41:14.548Z,99956.95
2019-03-03T01:45:18.730Z,99960.84
2019-03-03T01:49:22.942Z,99964.22
2019-03-03T01:53:27.162Z,99961.56
2019-03-03T01:57:31.422Z,99969.41
2019-03-03T02:01:36.124Z,99972.03
2019-03-03T02:05:40.375Z,99974.17
2019-03-03T02:09:44.624Z,99967.59
2019-03-03T02:13:48.967Z,99968.55
2019-03-03T02:17:53.433Z,99965.05
2019-03-03T02:21:57.992Z,99956.33
2019-03-03T02:26:02.977Z,99950.27
2019-03-03T02:30:12.424Z,99948.92
2019-03-03T02:34:16.720Z,99945.91
2019-03-03T02:38:20.918Z,99955.53
2019-03-03T02:42:25.148Z,99955.97
2019-03-03T02:46:29.338Z,99945.47
2019-03-03T02:50:33.534Z,99942.59
2019-03-03T02:54:37.889Z,99935.11
2019-03-03T02:58:42.139Z,99936.82
2019-03-03T03:02:50.751Z,99935.36
2019-03-03T03:11:23.717Z,99929.62
2019-03-03T03:15:46.035Z,99921.78
2019-03-03T03:19:59.595Z,99917.89
2019-03-03T03:24:28.943Z,99920.44
2019-03-03T03:28:58.034Z,99923.88
2019-03-03T03:33:18.703Z,99914.77
2019-03-03T03:37:32.204Z,99916.62
2019-03-03T03:41:44.845Z,99913.20
2019-03-03T03:46:06.751Z,99918.11
2019-03-03T03:50:23.608Z,99916.95
2019-03-03T03:54:45.723Z,99917.02
2019-03-03T03:59:07.797Z,99927.41
2019-03-03T04:03:29.749Z,99931.66
2019-03-03T04:08:02.133Z,99929.84
2019-03-03T04:12:24.466Z,99938.42
2019-03-03T04:16:34.740Z,99930.97
2019-03-03T04:21:06.840Z,99934.45
2019-03-03T04:25:18.464Z,99929.95
2019-03-03T04:29:32.017Z,99933.97
2019-03-03T04:33:47.776Z,99937.43
2019-03-03T04:38:05.144Z,99925.53
2019-03-03T04:42:19.164Z,99927.63
2019-03-03T04:46:41.299Z,99926.96
2019-03-03T04:50:57.955Z,99926.23
2019-03-03T04:55:19.937Z,99915.92
2019-03-03T04:59:43.029Z,99930.50
2019-03-03T05:04:00.458Z,99933.70
2019-03-03T05:08:21.977Z,99935.09
2019-03-03T05:12:57.015Z,99926.39
2019-03-03T05:17:08.738Z,99927.88
2019-03-03T05:21:13.098Z,99927.02
2019-03-03T05:25:17.317Z,99921.83
2019-03-03T05:29:21.555Z,99925.37
2019-03-03T05:37:29.077Z,99935.95
2019-03-03T05:41:33.310Z,99925.04
2019-03-03T05:45:37.581Z,99933.40
2019-03-03T05:49:41.780Z,99929.88
2019-03-03T05:53:46.001Z,99937.81
2019-03-03T05:57:50.592Z,99940.05
2019-03-03T06:01:54.784Z,99943.57
2019-03-03T06:05:59.025Z,99944.06
2019-03-03T06:10:03.252Z,99954.17
2019-03-03T06:14:07.906Z,99953.73
2019-03-03T06:18:12.542Z,99956.84
2019-03-03T06:22:16.768Z,99955.11
2019-03-03T06:26:20.997Z,99959.51
2019-03-03T06:30:25.643Z,99960.41
2019-03-03T06:34:29.873Z,99964.80
2019-03-03T06:38:34.108Z,99965.27
2019-03-03T06:42:38.747Z,99967.04
2019-03-03T06:46:42.928Z,99962.25
2019-03-03T06:50:47.157Z,99967.52
2019-03-03T06:54:51.362Z,99972.38
2019-03-03T06:58:55.642Z,99968.03
2019-03-03T07:02:59.829Z,99968.91
2019-03-03T07:07:04.417Z,99974.23
2019-03-03T07:11:10.121Z,99969.00
2019-03-03T07:15:15.916Z,99978.64
2019-03-03T07:19:20.161Z,99978.20
2019-03-03T07:23:24.366Z,99976.95
2019-03-03T07:27:28.597Z,99973.06
2019-03-03T07:31:32.776Z,99969.58
2019-03-03T07:35:36.979Z,99967.48
2019-03-03T07:39:41.211Z,99968.81
2019-03-03T07:43:45.450Z,99965.40
2019-03-03T07:47:49.624Z,99977.30
2019-03-03T07:51:53.884Z,99969.02
2019-03-03T07:55:58.175Z,99973.45
2019-03-03T08:00:02.370Z,99973.96
2019-03-03T08:04:06.603Z,99964.83
2019-03-03T08:08:10.844Z,99965.81
2019-03-03T08:12:15.080Z,99960.72
2019-03-03T08:16:19.324Z,99959.12
2019-03-03T08:20:23.678Z,99960.20
2019-03-03T08:24:27.876Z,99954.19
2019-03-03T08:28:32.189Z,99960.89
2019-03-03T08:32:36.588Z,99950.05
2019-03-03T08:36:40.825Z,99938.70
2019-03-03T08:40:45.203Z,99944.06
2019-03-03T08:45:08.401Z,99947.14
2019-03-03T08:49:40.900Z,99951.09
2019-03-03T08:53:53.525Z,99950.64
2019-03-03T08:58:15.139Z,99944.92
2019-03-03T09:02:38.508Z,99947.11
2019-03-03T09:06:59.580Z,99944.96
2019-03-03T09:11:21.922Z,99944.55
2019-03-03T09:16:03.530Z,99951.62
2019-03-03T09:20:30.834Z,99967.45
2019-03-03T09:25:03.273Z,99953.00
2019-03-03T09:29:26.935Z,99958.27
2019-03-03T09:33:42.889Z,99954.31
2019-03-03T09:38:00.439Z,99949.92
2019-03-03T09:42:22.497Z,99942.47
2019-03-03T09:46:33.354Z,99944.23
2019-03-03T09:50:54.025Z,99953.07
2019-03-03T09:55:32.352Z,99939.84
2019-03-03T10:00:10.621Z,99939.84
2019-03-03T10:04:46.022Z,99952.18
2019-03-03T10:09:24.419Z,99952.18
2019-03-03T10:13:38.179Z,99952.66
2019-03-03T10:18:08.056Z,99940.76
2019-03-03T10:22:34.083Z,99924.06
2019-03-03T10:27:03.635Z,99909.55
2019-03-03T10:31:30.019Z,99909.55
2019-03-03T10:36:03.484Z,99905.55
2019-03-03T10:40:34.591Z,99905.55
2019-03-03T10:45:01.078Z,99895.83
2019-03-03T10:49:15.133Z,99887.00
2019-03-03T10:53:29.083Z,99889.59
2019-03-03T10:58:03.939Z,99893.98
2019-03-03T11:02:20.395Z,99880.73
2019-03-03T11:06:54.751Z,99876.30
2019-03-03T11:11:13.860Z,99848.11
2019-03-03T11:15:40.336Z,99852.12
2019-03-03T11:20:03.315Z,99854.77
2019-03-03T11:24:22.465Z,99839.84
2019-03-03T11:28:49.716Z,99839.80
2019-03-03T11:33:16.318Z,99847.31
2019-03-03T11:37:42.574Z,99834.09
2019-03-03T11:42:24.415Z,99829.68
2019-03-03T11:46:38.841Z,99822.16
2019-03-03T11:50:57.633Z,99810.25
2019-03-03T11:55:19.886Z,99804.02
2019-03-03T12:03:59.126Z,99773.02
2019-03-03T12:08:28.399Z,99770.33
2019-03-03T12:12:45.033Z,99757.47
2019-03-03T12:17:07.573Z,99760.77
2019-03-03T12:21:21.661Z,99752.33
2019-03-03T12:25:54.047Z,99748.73
2019-03-03T12:30:20.448Z,99760.13
2019-03-03T12:34:43.922Z,99757.80
2019-03-03T12:39:10.002Z,99750.64
2019-03-03T12:43:42.552Z,99748.38
2019-03-03T12:48:05.876Z,99737.38
2019-03-03T12:52:20.265Z,99742.25
2019-03-03T12:56:40.497Z,99728.55
2019-03-03T13:01:02.880Z,99719.73
2019-03-03T13:05:23.229Z,99707.19
2019-03-03T13:09:40.884Z,99712.81
2019-03-03T13:13:55.386Z,99703.42
2019-03-03T13:18:25.824Z,99692.72
2019-03-03T13:22:42.024Z,99679.74
2019-03-03T13:27:05.273Z,99688.92
2019-03-03T13:31:18.857Z,99692.88
2019-03-03T13:35:53.190Z,99682.23
2019-03-03T13:40:29.978Z,99681.41
2019-03-03T13:44:34.760Z,99683.25
2019-03-03T13:48:39.952Z,99679.78
2019-03-03T13:52:45.730Z,99675.78
2019-03-03T13:56:50.833Z,99666.99
2019-03-03T14:00:55.775Z,99653.67
2019-03-03T14:05:00.786Z,99657.13
2019-03-03T14:09:07.829Z,99653.55
2019-03-03T14:13:13.238Z,99652.93
2019-03-03T14:17:18.486Z,99652.05
2019-03-03T14:21:23.129Z,99650.74
2019-03-03T14:25:28.613Z,99644.09
2019-03-03T14:29:33.507Z,99626.47
2019-03-03T14:33:38.596Z,99623.80
2019-03-03T14:37:43.354Z,99626.55
2019-03-03T14:41:47.667Z,99612.48
2019-03-03T14:45:51.902Z,99624.42
2019-03-03T14:49:56.249Z,99618.66
2019-03-03T14:54:00.511Z,99617.30
2019-03-03T14:58:04.792Z,99618.60
2019-03-03T15:02:09.542Z,99621.66
2019-03-03T15:06:13.856Z,99611.95
2019-03-03T15:10:18.717Z,99602.60
2019-03-03T15:14:22.946Z,99601.25
2019-03-03T15:18:27.221Z,99593.23
2019-03-03T15:22:31.437Z,99593.21
2019-03-03T15:26:35.697Z,99595.86
2019-03-03T15:30:40.012Z,99590.09
2019-03-03T15:34:44.233Z,99590.58
2019-03-03T15:38:48.477Z,99588.91
2019-03-03T15:42:52.944Z,99575.74
2019-03-03T15:46:57.182Z,99564.77
2019-03-03T15:51:01.446Z,99563.02
2019-03-03T15:55:06.790Z,99557.75
2019-03-03T15:59:10.975Z,99557.77
2019-03-03T16:03:15.259Z,99559.59
2019-03-03T16:07:19.471Z,99557.39
2019-03-03T16:11:23.804Z,99546.38
2019-03-03T16:15:28.181Z,99545.48
2019-03-03T16:19:32.559Z,99547.78
2019-03-03T16:23:36.925Z,99547.80
2019-03-03T16:27:42.160Z,99548.30
2019-03-03T16:31:46.669Z,99548.83
2019-03-03T16:35:51.207Z,99548.91
2019-03-03T16:39:55.454Z,99540.61
2019-03-03T16:44:01.041Z,99534.49
2019-03-03T16:48:05.367Z,99529.63
2019-03-03T16:52:09.879Z,99526.57
2019-03-03T16:56:14.445Z,99533.20
2019-03-03T17:00:20.183Z,99532.34
2019-03-03T17:04:24.457Z,99534.59
2019-03-03T17:08:28.721Z,99532.08
2019-03-03T17:12:33.066Z,99534.89
2019-03-03T17:16:37.357Z,99534.56
2019-03-03T17:20:41.962Z,99529.86
2019-03-03T17:24:46.204Z,99530.50
2019-03-03T17:28:51.005Z,99522.27
2019-03-03T17:32:55.658Z,99524.52
2019-03-03T17:36:59.896Z,99523.69
2019-03-03T17:41:04.326Z,99515.40
2019-03-03T17:45:11.559Z,99515.04
2019-03-03T17:49:15.780Z,99518.59
2019-03-03T17:53:20.366Z,99515.58
2019-03-03T17:57:25.235Z,99515.21
2019-03-03T18:01:29.510Z,99505.17
2019-03-03T18:05:33.859Z,99502.58
2019-03-03T18:09:38.158Z,99496.88
2019-03-03T18:13:42.948Z,99500.39
2019-03-03T18:17:47.283Z,99494.22
2019-03-03T18:21:51.545Z,99489.83
2019-03-03T18:25:55.800Z,99484.16
2019-03-03T18:30:00.021Z,99486.43
2019-03-03T18:34:04.479Z,99479.84
2019-03-03T18:38:08.710Z,99477.73
2019-03-03T18:42:12.972Z,99479.14
2019-03-03T18:46:17.530Z,99472.12
2019-03-03T18:50:21.879Z,99469.56
2019-03-03T18:54:26.146Z,99466.15
2019-03-03T18:58:30.371Z,99464.00
2019-03-03T19:02:34.613Z,99451.98
2019-03-03T19:06:38.909Z,99451.98
2019-03-03T19:10:43.144Z,99450.24
2019-03-03T19:14:47.484Z,99448.98
2019-03-03T19:18:53.067Z,99446.77
2019-03-03T19:22:57.529Z,99437.59
2019-03-03T19:27:02.894Z,99423.59
2019-03-03T19:31:07.706Z,99428.86
2019-03-03T19:35:12.982Z,99430.27
2019-03-03T19:39:17.518Z,99422.40
2019-03-03T19:43:21.749Z,99416.78
2019-03-03T19:47:26.597Z,99413.30
2019-03-03T19:51:31.223Z,99405.00
2019-03-03T19:55:35.524Z,99404.62
2019-03-03T19:59:40.612Z,99409.94
2019-03-03T20:03:44.927Z,99409.94
2019-03-03T20:07:49.118Z,99395.48
2019-03-03T20:11:53.405Z,99402.59
2019-03-03T20:15:57.639Z,99410.98
2019-03-03T20:20:01.922Z,99404.48
2019-03-03T20:24:07.357Z,99405.91
2019-03-03T20:28:12.657Z,99400.23
2019-03-03T20:32:17.949Z,99382.27
2019-03-03T20:36:22.380Z,99382.27
2019-03-03T20:40:27.932Z,99394.58
2019-03-03T20:44:39.418Z,99398.98
2019-03-03T20:48:46.449Z,99389.36
2019-03-03T20:52:52.178Z,99362.27
2019-03-03T20:56:57.992Z,99362.27
2019-03-03T21:01:05.899Z,99360.95
2019-03-03T21:05:11.682Z,99363.61
2019-03-03T21:09:16.415Z,99357.03
2019-03-03T21:13:20.676Z,99359.20
2019-03-03T21:17:25.651Z,99347.84
2019-03-03T21:21:30.236Z,99347.40
2019-03-03T21:25:35.164Z,99342.16
2019-03-03T21:29:39.955Z,99338.20
2019-03-03T21:33:44.974Z,99331.22
2019-03-03T21:37:49.872Z,99324.19
2019-03-03T21:41:57.501Z,99333.39
2019-03-03T21:46:02.361Z,99330.33
2019-03-03T21:50:10.557Z,99315.86
2019-03-03T21:54:18.195Z,99311.50
2019-03-03T21:58:22.361Z,99315.84
2019-03-03T22:02:26.916Z,99304.47
2019-03-03T22:06:32.826Z,99305.79
2019-03-03T22:10:42.318Z,99293.52
2019-03-03T22:14:46.596Z,99294.83
2019-03-03T22:18:51.215Z,99291.34
2019-03-03T22:22:58.273Z,99300.08
2019-03-03T22:27:03.043Z,99292.20
2019-03-03T22:31:08.191Z,99276.00
2019-03-03T22:35:14.545Z,99273.38
2019-03-03T22:39:18.712Z,99272.95
2019-03-03T22:43:24.339Z,99276.47
2019-03-03T22:47:27.173Z,99274.69
2019-03-03T22:51:30.443Z,99268.14
2019-03-03T22:55:40.517Z,99265.05
2019-03-03T22:59:45.000Z,99257.62
2019-03-03T23:04:09.548Z,99245.81
2019-03-03T23:08:28.469Z,99245.80
2019-03-03T23:12:45.113Z,99252.81
2019-03-03T23:17:44.352Z,99255.00
2019-03-03T23:22:22.704Z,99263.73
2019-03-03T23:26:28.789Z,99257.17
2019-03-03T23:30:34.091Z,99254.56
2019-03-03T23:34:40.258Z,99246.68
2019-03-03T23:38:44.452Z,99241.42
2019-03-03T23:42:48.696Z,99242.29
2019-03-03T23:46:52.926Z,99233.55
2019-03-03T23:50:57.161Z,99230.47
2019-03-03T23:55:01.599Z,99227.84
2019-03-03T23:59:08.991Z,99223.92
